METAR AND TAF INFORMATION
METAR FOR ENBO
ADDS - METARS form results

(1516 UTC 28 January 2020)
Data provider http://aviationweather.gov/metar/data/
 
METAR text: ENBO 281450Z 09025KT 9999 FEW040 BKN060 M03/M10 Q0994 TEMPO 10030G40KT
Conditions at: ENBO (BODO VI (CIV/MIL, NO) observed 1450 UTC 28 January 2020
Temperature: -3.0°C (27°F)
Dewpoint: -10.0°C (14°F) [RH = 58%]
Pressure (altimeter): 29.35 inches Hg (994.0 mb)
Winds: from the E (90 degrees) at 29 MPH (25 knots; 12.9 m/s)
Visibility: 6 or more miles (10+ km)
Ceiling: 6000 feet AGL
Clouds: few clouds at 4000 feet AGL
broken clouds at 6000 feet AGL
Weather: no significant weather observed at this time

METAR text: ENBO 281420Z 09024KT 9999 FEW040 BKN060 M03/M10 Q0994 TEMPO 10030G40KT
Conditions at: ENBO (BODO VI (CIV/MIL, NO) observed 1420 UTC 28 January 2020
Temperature: -3.0°C (27°F)
Dewpoint: -10.0°C (14°F) [RH = 58%]
Pressure (altimeter): 29.35 inches Hg (994.0 mb)
Winds: from the E (90 degrees) at 28 MPH (24 knots; 12.3 m/s)
Visibility: 6 or more miles (10+ km)
Ceiling: 6000 feet AGL
Clouds: few clouds at 4000 feet AGL
broken clouds at 6000 feet AGL
Weather: no significant weather observed at this time

Forecast for: ENBO (BODO VI (CIV/MIL, NO)
Text: TAF ENBO 2812/2912 10025KT 9999 FEW020 SCT080
Forecast period: 1200 UTC 28 January 2020 to 1200 UTC 29 January 2020
Forecast type: FROM: standard forecast or significant change
Winds: from the E (100 degrees) at 29 MPH (25 knots; 12.9 m/s)
Visibility: 6 or more miles 10+ km)
Ceiling: at least 12,000 feet AGL
Clouds: few clouds at 2000 feet AGL
scattered clouds at 8000 feet AGL
Weather: no significant weather forecast for this period
Text: TEMPO 2812/2912 10030G40KT
Forecast period: 1200 UTC 28 January 2020 to 1200 UTC 29 January 2020
Forecast type: TEMPORARY: The following changes expected for less than half the time period
Winds: from the E (100 degrees) at 34 MPH (30 knots; 15.4 m/s)
gusting to 46 MPH (40 knots; 20.6 m/s)
Visibility: missing
Ceiling: unknown
Clouds: missing
Weather: no significant weather forecast for this period

 AIRPORT MAP

 RUNWAY INFORMATION
Runway 07 Runway length 11136 ft Runway width 148 ft
Runway elevation 17 ft Runway displaced threshold 1969 ft Runway heading 78
Runway 25 Runway length 11136 ft Runway width 148 ft
Runway elevation 39 ft Runway displaced threshold 0 ft Runway heading 258

 AIRPORT FREQUENCIES
Type A/D Name APP/DEP Frequency 119.7 MHZ
Type ATIS Name ATIS Frequency 123.9 MHZ
Type TWR Name TWR Frequency 118.1 MHZ

 AIRPORT NEAR NAVIGATION AIDS
Type VOR-DME Name Bodo Frequency 117200 KHZ
Type TACAN Name Bodo Frequency 110800 KHZ
Type NDB Name Fleinvaer Frequency 374 KHZ
Type NDB Name Fauske Frequency 326 KHZ
Type NDB Name Stott Frequency 317 KHZ